Terminal Aerodrome Forecast
Issued by NWS Shreveport, LA

Home | Current Version | Previous Version | Text Only | Print | Product List | Glossary On
Versions: 1 2 3 4 5 6 7 8 9 10 11 12 13 14 15 16 17 18
354
FTUS44 KSHV 071144
TAFGGG
TAF
KGGG 071144Z 0712/0812 00000KT P6SM OVC006
      TEMPO 0712/0713 2SM -DZ BR OVC002
     FM071600 12004KT P6SM OVC015
     FM071800 13005KT P6SM BKN015 OVC030
     FM080100 03005KT P6SM VCSH OVC010
     FM080600 01008KT P6SM OVC004=

USA.gov is the U.S. government's official web portal to all federal, state and local government web resources and services.